sensor_id;sensor_type;location;lat;lon;timestamp;pressure;altitude;pressure_sealevel;temperature;humidity
10135;BME280;5107;48.850;8.924;2023-06-24T00:02:12;97679.88;;;16.36;70.57
10135;BME280;5107;48.850;8.924;2023-06-24T00:04:38;97678.97;;;16.14;71.20
10135;BME280;5107;48.850;8.924;2023-06-24T00:07:03;97681.38;;;16.01;71.60
10135;BME280;5107;48.850;8.924;2023-06-24T00:09:29;97682.00;;;15.88;72.49
10135;BME280;5107;48.850;8.924;2023-06-24T00:11:55;97681.97;;;15.73;73.14
10135;BME280;5107;48.850;8.924;2023-06-24T00:14:21;97686.69;;;15.63;73.43
10135;BME280;5107;48.850;8.924;2023-06-24T00:16:49;97684.41;;;15.52;74.43
10135;BME280;5107;48.850;8.924;2023-06-24T00:19:21;97686.91;;;15.53;74.69
10135;BME280;5107;48.850;8.924;2023-06-24T00:21:47;97684.72;;;15.57;75.49
10135;BME280;5107;48.850;8.924;2023-06-24T00:24:13;97678.25;;;15.60;75.69
10135;BME280;5107;48.850;8.924;2023-06-24T00:26:38;97683.41;;;15.53;75.38
10135;BME280;5107;48.850;8.924;2023-06-24T00:29:04;97675.94;;;15.48;75.29
10135;BME280;5107;48.850;8.924;2023-06-24T00:31:29;97676.31;;;15.45;75.73
10135;BME280;5107;48.850;8.924;2023-06-24T00:33:54;97680.31;;;15.41;75.56
10135;BME280;5107;48.850;8.924;2023-06-24T00:36:20;97680.69;;;15.38;75.10
10135;BME280;5107;48.850;8.924;2023-06-24T00:38:46;97681.84;;;15.36;74.72
10135;BME280;5107;48.850;8.924;2023-06-24T00:41:11;97682.63;;;15.22;75.04
10135;BME280;5107;48.850;8.924;2023-06-24T00:43:36;97678.53;;;15.34;74.92
10135;BME280;5107;48.850;8.924;2023-06-24T00:46:04;97679.69;;;15.39;75.29
10135;BME280;5107;48.850;8.924;2023-06-24T00:48:31;97675.31;;;15.46;74.62
10135;BME280;5107;48.850;8.924;2023-06-24T00:50:57;97671.97;;;15.52;74.33
10135;BME280;5107;48.850;8.924;2023-06-24T00:53:23;97677.66;;;15.41;74.84
10135;BME280;5107;48.850;8.924;2023-06-24T00:55:50;97680.09;;;15.28;74.89
10135;BME280;5107;48.850;8.924;2023-06-24T00:58:18;97679.25;;;15.28;75.90
10135;BME280;5107;48.850;8.924;2023-06-24T01:00:46;97678.47;;;15.19;76.18
10135;BME280;5107;48.850;8.924;2023-06-24T01:03:13;97675.81;;;15.19;76.34
10135;BME280;5107;48.850;8.924;2023-06-24T01:05:43;97682.34;;;15.08;76.63
10135;BME280;5107;48.850;8.924;2023-06-24T01:08:09;97684.88;;;15.02;76.58
10135;BME280;5107;48.850;8.924;2023-06-24T01:10:41;97682.09;;;14.95;76.87
10135;BME280;5107;48.850;8.924;2023-06-24T01:13:06;97683.91;;;14.95;77.55
10135;BME280;5107;48.850;8.924;2023-06-24T01:15:32;97683.41;;;14.91;77.18
10135;BME280;5107;48.850;8.924;2023-06-24T01:18:08;97674.53;;;14.76;77.86
10135;BME280;5107;48.850;8.924;2023-06-24T01:20:37;97674.75;;;14.66;77.94
10135;BME280;5107;48.850;8.924;2023-06-24T01:29:12;97672.97;;;14.51;78.53
10135;BME280;5107;48.850;8.924;2023-06-24T01:31:48;97673.66;;;14.45;78.48
10135;BME280;5107;48.850;8.924;2023-06-24T01:34:29;97670.50;;;14.33;78.65
10135;BME280;5107;48.850;8.924;2023-06-24T01:37:08;97675.63;;;14.34;79.59
10135;BME280;5107;48.850;8.924;2023-06-24T01:39:38;97676.41;;;14.67;79.20
10135;BME280;5107;48.850;8.924;2023-06-24T01:42:09;97666.72;;;14.82;77.94
10135;BME280;5107;48.850;8.924;2023-06-24T01:44:38;97664.56;;;14.86;77.14
10135;BME280;5107;48.850;8.924;2023-06-24T01:47:06;97667.09;;;14.79;77.50
10135;BME280;5107;48.850;8.924;2023-06-24T01:49:38;97665.34;;;14.64;77.07
10135;BME280;5107;48.850;8.924;2023-06-24T01:52:07;97664.16;;;14.58;77.79
10135;BME280;5107;48.850;8.924;2023-06-24T01:54:35;97670.78;;;14.62;78.08
10135;BME280;5107;48.850;8.924;2023-06-24T01:57:02;97672.81;;;14.52;77.95
10135;BME280;5107;48.850;8.924;2023-06-24T01:59:31;97670.19;;;14.36;78.47
10135;BME280;5107;48.850;8.924;2023-06-24T02:01:59;97672.31;;;14.32;78.64
10135;BME280;5107;48.850;8.924;2023-06-24T02:04:26;97669.03;;;14.30;79.16
10135;BME280;5107;48.850;8.924;2023-06-24T02:06:58;97662.75;;;14.23;79.73
10135;BME280;5107;48.850;8.924;2023-06-24T02:09:25;97672.50;;;14.23;79.71
10135;BME280;5107;48.850;8.924;2023-06-24T02:11:51;97662.97;;;14.14;79.85
10135;BME280;5107;48.850;8.924;2023-06-24T02:14:17;97658.97;;;14.10;80.18
10135;BME280;5107;48.850;8.924;2023-06-24T02:16:46;97659.09;;;14.24;80.73
10135;BME280;5107;48.850;8.924;2023-06-24T02:19:13;97663.25;;;14.27;80.43
10135;BME280;5107;48.850;8.924;2023-06-24T02:21:42;97661.25;;;14.29;80.14
10135;BME280;5107;48.850;8.924;2023-06-24T02:24:10;97653.75;;;14.57;77.81
10135;BME280;5107;48.850;8.924;2023-06-24T02:26:36;97659.91;;;14.49;78.37
10135;BME280;5107;48.850;8.924;2023-06-24T02:29:08;97656.75;;;14.54;79.23
10135;BME280;5107;48.850;8.924;2023-06-24T02:31:34;97647.00;;;14.85;77.50
10135;BME280;5107;48.850;8.924;2023-06-24T02:33:59;97651.56;;;14.99;76.21
10135;BME280;5107;48.850;8.924;2023-06-24T02:36:25;97646.75;;;15.03;76.27
10135;BME280;5107;48.850;8.924;2023-06-24T02:38:50;97646.81;;;14.95;76.82
10135;BME280;5107;48.850;8.924;2023-06-24T02:41:15;97642.56;;;14.77;76.90
10135;BME280;5107;48.850;8.924;2023-06-24T02:43:41;97641.78;;;14.69;77.75
10135;BME280;5107;48.850;8.924;2023-06-24T02:46:07;97648.50;;;14.88;76.54
10135;BME280;5107;48.850;8.924;2023-06-24T02:48:34;97642.75;;;15.07;75.61
10135;BME280;5107;48.850;8.924;2023-06-24T02:51:02;97650.03;;;15.13;75.12
10135;BME280;5107;48.850;8.924;2023-06-24T02:53:29;97646.81;;;15.17;74.99
10135;BME280;5107;48.850;8.924;2023-06-24T02:55:56;97645.28;;;15.23;74.81
10135;BME280;5107;48.850;8.924;2023-06-24T02:58:23;97644.94;;;15.26;74.60
10135;BME280;5107;48.850;8.924;2023-06-24T03:00:49;97643.00;;;15.20;75.12
10135;BME280;5107;48.850;8.924;2023-06-24T03:03:15;97645.88;;;15.10;75.22
10135;BME280;5107;48.850;8.924;2023-06-24T03:05:41;97645.72;;;15.12;74.79
10135;BME280;5107;48.850;8.924;2023-06-24T03:08:10;97647.88;;;15.08;75.22
10135;BME280;5107;48.850;8.924;2023-06-24T03:10:36;97656.38;;;15.04;75.93
10135;BME280;5107;48.850;8.924;2023-06-24T03:13:02;97652.34;;;15.08;75.68
10135;BME280;5107;48.850;8.924;2023-06-24T03:15:28;97655.44;;;15.19;75.20
10135;BME280;5107;48.850;8.924;2023-06-24T03:17:53;97656.94;;;15.22;75.10
10135;BME280;5107;48.850;8.924;2023-06-24T03:20:19;97663.50;;;15.26;74.79
10135;BME280;5107;48.850;8.924;2023-06-24T03:22:45;97662.84;;;15.24;74.96
10135;BME280;5107;48.850;8.924;2023-06-24T03:25:10;97665.88;;;15.21;75.15
10135;BME280;5107;48.850;8.924;2023-06-24T03:27:36;97672.41;;;15.10;75.55
10135;BME280;5107;48.850;8.924;2023-06-24T03:30:02;97669.25;;;15.07;75.57
10135;BME280;5107;48.850;8.924;2023-06-24T03:32:28;97665.31;;;15.03;75.83
10135;BME280;5107;48.850;8.924;2023-06-24T03:34:53;97671.13;;;14.98;76.23
10135;BME280;5107;48.850;8.924;2023-06-24T03:37:18;97670.00;;;14.93;76.17
10135;BME280;5107;48.850;8.924;2023-06-24T03:39:43;97672.78;;;14.99;76.55
10135;BME280;5107;48.850;8.924;2023-06-24T03:42:09;97672.28;;;15.04;76.58
10135;BME280;5107;48.850;8.924;2023-06-24T03:44:34;97676.88;;;15.10;76.36
10135;BME280;5107;48.850;8.924;2023-06-24T03:46:59;97681.13;;;15.19;76.23
10135;BME280;5107;48.850;8.924;2023-06-24T03:49:25;97689.75;;;15.21;76.50
10135;BME280;5107;48.850;8.924;2023-06-24T03:51:50;97677.88;;;15.09;75.39
10135;BME280;5107;48.850;8.924;2023-06-24T03:54:15;97687.59;;;15.16;75.81
10135;BME280;5107;48.850;8.924;2023-06-24T03:56:41;97685.72;;;15.25;75.76
10135;BME280;5107;48.850;8.924;2023-06-24T03:59:06;97695.34;;;15.26;75.91
10135;BME280;5107;48.850;8.924;2023-06-24T04:01:33;97689.97;;;15.34;75.58
10135;BME280;5107;48.850;8.924;2023-06-24T04:03:58;97685.94;;;15.46;75.48
10135;BME280;5107;48.850;8.924;2023-06-24T04:06:24;97688.31;;;15.87;74.30
10135;BME280;5107;48.850;8.924;2023-06-24T04:08:49;97695.44;;;16.24;72.04
10135;BME280;5107;48.850;8.924;2023-06-24T04:11:17;97694.22;;;16.79;70.37
10135;BME280;5107;48.850;8.924;2023-06-24T04:13:44;97700.94;;;17.25;68.41
10135;BME280;5107;48.850;8.924;2023-06-24T04:16:09;97706.31;;;17.47;68.18
10135;BME280;5107;48.850;8.924;2023-06-24T04:18:34;97708.22;;;17.53;66.00
10135;BME280;5107;48.850;8.924;2023-06-24T04:21:02;97708.53;;;18.28;64.76
10135;BME280;5107;48.850;8.924;2023-06-24T04:23:27;97707.44;;;19.13;62.59
10135;BME280;5107;48.850;8.924;2023-06-24T04:25:53;97711.59;;;19.83;59.49
10135;BME280;5107;48.850;8.924;2023-06-24T04:28:18;97709.31;;;20.26;56.67
10135;BME280;5107;48.850;8.924;2023-06-24T04:30:43;97716.13;;;20.61;55.70
10135;BME280;5107;48.850;8.924;2023-06-24T04:33:08;97712.44;;;20.36;57.50
10135;BME280;5107;48.850;8.924;2023-06-24T04:35:34;97720.03;;;20.13;58.09
10135;BME280;5107;48.850;8.924;2023-06-24T04:37:59;97716.81;;;21.14;55.05
10135;BME280;5107;48.850;8.924;2023-06-24T04:40:24;97728.47;;;21.78;52.83
10135;BME280;5107;48.850;8.924;2023-06-24T04:42:50;97724.63;;;22.05;51.77
10135;BME280;5107;48.850;8.924;2023-06-24T04:45:15;97720.06;;;20.45;55.43
10135;BME280;5107;48.850;8.924;2023-06-24T04:47:40;97721.66;;;20.27;55.95
10135;BME280;5107;48.850;8.924;2023-06-24T04:50:06;97730.06;;;18.82;61.33
10135;BME280;5107;48.850;8.924;2023-06-24T04:52:34;97721.38;;;19.62;59.70
10135;BME280;5107;48.850;8.924;2023-06-24T04:55:00;97728.47;;;18.94;61.42
10135;BME280;5107;48.850;8.924;2023-06-24T04:57:29;97734.09;;;18.72;62.11
10135;BME280;5107;48.850;8.924;2023-06-24T04:59:55;97725.91;;;18.73;61.55
10135;BME280;5107;48.850;8.924;2023-06-24T05:02:20;97722.59;;;18.71;62.60
10135;BME280;5107;48.850;8.924;2023-06-24T05:04:45;97725.22;;;18.99;61.69
10135;BME280;5107;48.850;8.924;2023-06-24T05:07:11;97722.75;;;19.45;60.14
10135;BME280;5107;48.850;8.924;2023-06-24T05:09:37;97725.38;;;20.19;58.88
10135;BME280;5107;48.850;8.924;2023-06-24T05:12:04;97724.75;;;20.17;59.04
10135;BME280;5107;48.850;8.924;2023-06-24T05:14:30;97730.31;;;19.35;60.40
10135;BME280;5107;48.850;8.924;2023-06-24T05:16:55;97729.56;;;19.48;60.51
10135;BME280;5107;48.850;8.924;2023-06-24T05:19:20;97724.16;;;20.22;58.38
10135;BME280;5107;48.850;8.924;2023-06-24T05:21:45;97735.44;;;20.04;58.67
10135;BME280;5107;48.850;8.924;2023-06-24T05:24:11;97737.06;;;19.92;60.16
10135;BME280;5107;48.850;8.924;2023-06-24T05:26:36;97734.00;;;20.67;57.87
10135;BME280;5107;48.850;8.924;2023-06-24T05:29:01;97733.47;;;21.68;55.45
10135;BME280;5107;48.850;8.924;2023-06-24T05:31:27;97735.00;;;21.57;55.16
10135;BME280;5107;48.850;8.924;2023-06-24T05:33:52;97742.38;;;22.06;53.26
10135;BME280;5107;48.850;8.924;2023-06-24T05:36:17;97740.94;;;22.78;52.17
10135;BME280;5107;48.850;8.924;2023-06-24T05:38:43;97735.91;;;22.63;51.31
10135;BME280;5107;48.850;8.924;2023-06-24T05:41:08;97749.84;;;22.97;52.60
10135;BME280;5107;48.850;8.924;2023-06-24T05:43:33;97741.88;;;22.90;51.19
10135;BME280;5107;48.850;8.924;2023-06-24T05:45:58;97743.50;;;23.28;50.69
10135;BME280;5107;48.850;8.924;2023-06-24T05:48:24;97745.88;;;21.62;53.82
10135;BME280;5107;48.850;8.924;2023-06-24T05:50:49;97748.44;;;21.50;54.62
10135;BME280;5107;48.850;8.924;2023-06-24T05:53:14;97750.09;;;20.54;57.55
10135;BME280;5107;48.850;8.924;2023-06-24T05:55:40;97748.19;;;20.22;58.11
10135;BME280;5107;48.850;8.924;2023-06-24T05:58:05;97748.84;;;20.57;57.91
10135;BME280;5107;48.850;8.924;2023-06-24T06:00:30;97748.84;;;20.57;57.61
10135;BME280;5107;48.850;8.924;2023-06-24T06:02:56;97750.81;;;21.01;56.77
10135;BME280;5107;48.850;8.924;2023-06-24T06:05:21;97742.97;;;21.26;55.94
10135;BME280;5107;48.850;8.924;2023-06-24T06:07:46;97747.84;;;21.42;55.24
10135;BME280;5107;48.850;8.924;2023-06-24T06:10:13;97747.84;;;21.80;54.86
10135;BME280;5107;48.850;8.924;2023-06-24T06:12:42;97745.88;;;22.31;53.51
10135;BME280;5107;48.850;8.924;2023-06-24T06:15:08;97756.94;;;22.91;51.57
10135;BME280;5107;48.850;8.924;2023-06-24T06:17:34;97747.53;;;23.19;50.63
10135;BME280;5107;48.850;8.924;2023-06-24T06:19:59;97761.56;;;23.02;50.75
10135;BME280;5107;48.850;8.924;2023-06-24T06:22:24;97755.19;;;23.58;49.68
10135;BME280;5107;48.850;8.924;2023-06-24T06:24:50;97754.88;;;23.30;49.55
10135;BME280;5107;48.850;8.924;2023-06-24T06:27:15;97747.38;;;22.95;51.29
10135;BME280;5107;48.850;8.924;2023-06-24T06:29:40;97741.56;;;23.53;49.62
10135;BME280;5107;48.850;8.924;2023-06-24T06:32:06;97749.59;;;23.60;48.77
10135;BME280;5107;48.850;8.924;2023-06-24T06:34:31;97745.56;;;23.51;48.99
10135;BME280;5107;48.850;8.924;2023-06-24T06:36:57;97742.59;;;22.79;51.13
10135;BME280;5107;48.850;8.924;2023-06-24T06:39:22;97747.75;;;22.56;52.22
10135;BME280;5107;48.850;8.924;2023-06-24T06:41:47;97743.84;;;22.77;50.88
10135;BME280;5107;48.850;8.924;2023-06-24T06:44:12;97745.25;;;23.89;49.77
10135;BME280;5107;48.850;8.924;2023-06-24T06:46:38;97744.34;;;22.67;51.22
10135;BME280;5107;48.850;8.924;2023-06-24T06:49:03;97737.16;;;22.11;53.06
10135;BME280;5107;48.850;8.924;2023-06-24T06:51:28;97736.81;;;22.01;53.14
10135;BME280;5107;48.850;8.924;2023-06-24T06:53:54;97741.63;;;21.48;53.89
10135;BME280;5107;48.850;8.924;2023-06-24T06:56:22;97733.72;;;21.02;54.40
10135;BME280;5107;48.850;8.924;2023-06-24T06:58:49;97735.97;;;21.11;54.09
10135;BME280;5107;48.850;8.924;2023-06-24T07:01:14;97734.59;;;21.53;53.42
10135;BME280;5107;48.850;8.924;2023-06-24T07:03:40;97743.22;;;21.62;52.95
10135;BME280;5107;48.850;8.924;2023-06-24T07:06:05;97736.38;;;22.04;52.31
10135;BME280;5107;48.850;8.924;2023-06-24T07:08:30;97745.13;;;22.24;51.36
10135;BME280;5107;48.850;8.924;2023-06-24T07:10:56;97745.88;;;22.07;51.55
10135;BME280;5107;48.850;8.924;2023-06-24T07:13:21;97743.69;;;22.47;50.84
10135;BME280;5107;48.850;8.924;2023-06-24T07:15:47;97736.47;;;22.47;50.98
10135;BME280;5107;48.850;8.924;2023-06-24T07:18:12;97738.31;;;21.90;52.61
10135;BME280;5107;48.850;8.924;2023-06-24T07:20:37;97734.75;;;22.28;51.71
10135;BME280;5107;48.850;8.924;2023-06-24T07:23:02;97734.22;;;22.44;51.04
10135;BME280;5107;48.850;8.924;2023-06-24T07:25:29;97737.44;;;22.78;50.56
10135;BME280;5107;48.850;8.924;2023-06-24T07:27:55;97739.25;;;22.84;49.92
10135;BME280;5107;48.850;8.924;2023-06-24T07:30:20;97737.84;;;23.36;49.57
10135;BME280;5107;48.850;8.924;2023-06-24T07:32:45;97736.88;;;23.67;47.61
10135;BME280;5107;48.850;8.924;2023-06-24T07:35:11;97742.53;;;23.40;48.28
10135;BME280;5107;48.850;8.924;2023-06-24T07:37:36;97734.69;;;23.75;47.94
10135;BME280;5107;48.850;8.924;2023-06-24T07:40:04;97731.84;;;23.70;47.89
10135;BME280;5107;48.850;8.924;2023-06-24T07:42:30;97739.00;;;23.76;47.88
10135;BME280;5107;48.850;8.924;2023-06-24T07:44:55;97726.09;;;24.27;46.97
10135;BME280;5107;48.850;8.924;2023-06-24T07:47:21;97734.59;;;23.94;47.80
10135;BME280;5107;48.850;8.924;2023-06-24T07:49:46;97727.97;;;23.66;47.26
10135;BME280;5107;48.850;8.924;2023-06-24T07:52:11;97737.41;;;24.29;46.24
10135;BME280;5107;48.850;8.924;2023-06-24T07:54:37;97726.34;;;24.95;45.26
10135;BME280;5107;48.850;8.924;2023-06-24T07:57:02;97733.25;;;25.54;42.79
10135;BME280;5107;48.850;8.924;2023-06-24T07:59:28;97731.91;;;25.80;42.14
10135;BME280;5107;48.850;8.924;2023-06-24T08:01:53;97724.84;;;26.24;40.87
10135;BME280;5107;48.850;8.924;2023-06-24T08:04:18;97727.69;;;26.01;41.22
10135;BME280;5107;48.850;8.924;2023-06-24T08:06:44;97721.63;;;25.25;42.28
10135;BME280;5107;48.850;8.924;2023-06-24T08:09:10;97727.84;;;25.03;42.76
10135;BME280;5107;48.850;8.924;2023-06-24T08:11:35;97727.69;;;25.32;42.70
10135;BME280;5107;48.850;8.924;2023-06-24T08:14:00;97730.63;;;25.71;41.75
10135;BME280;5107;48.850;8.924;2023-06-24T08:16:27;97731.22;;;26.01;40.76
10135;BME280;5107;48.850;8.924;2023-06-24T08:18:52;97731.75;;;26.32;40.21
10135;BME280;5107;48.850;8.924;2023-06-24T08:21:18;97718.41;;;26.25;40.46
10135;BME280;5107;48.850;8.924;2023-06-24T08:23:44;97726.75;;;26.24;39.14
10135;BME280;5107;48.850;8.924;2023-06-24T08:26:09;97723.56;;;26.94;38.75
10135;BME280;5107;48.850;8.924;2023-06-24T08:28:35;97713.81;;;26.76;40.06
10135;BME280;5107;48.850;8.924;2023-06-24T08:31:00;97722.84;;;26.48;39.62
10135;BME280;5107;48.850;8.924;2023-06-24T08:33:26;97717.47;;;26.87;37.47
10135;BME280;5107;48.850;8.924;2023-06-24T08:35:51;97719.28;;;26.81;37.57
10135;BME280;5107;48.850;8.924;2023-06-24T08:38:16;97720.88;;;26.94;38.55
10135;BME280;5107;48.850;8.924;2023-06-24T08:40:42;97720.94;;;27.42;37.88
10135;BME280;5107;48.850;8.924;2023-06-24T08:43:08;97709.84;;;27.61;38.10
10135;BME280;5107;48.850;8.924;2023-06-24T08:45:34;97718.31;;;27.69;36.81
10135;BME280;5107;48.850;8.924;2023-06-24T08:48:02;97717.66;;;27.84;36.46
10135;BME280;5107;48.850;8.924;2023-06-24T08:50:34;97718.06;;;27.98;36.21
10135;BME280;5107;48.850;8.924;2023-06-24T08:53:03;97717.16;;;26.83;36.22
10135;BME280;5107;48.850;8.924;2023-06-24T08:55:31;97723.81;;;27.14;38.10
10135;BME280;5107;48.850;8.924;2023-06-24T08:57:57;97716.09;;;27.01;35.82
10135;BME280;5107;48.850;8.924;2023-06-24T09:00:23;97720.25;;;27.08;35.00
10135;BME280;5107;48.850;8.924;2023-06-24T09:02:49;97718.22;;;26.99;35.47
10135;BME280;5107;48.850;8.924;2023-06-24T09:05:14;97728.59;;;27.07;34.45
10135;BME280;5107;48.850;8.924;2023-06-24T09:07:40;97720.75;;;27.05;34.54
10135;BME280;5107;48.850;8.924;2023-06-24T09:10:05;97724.84;;;27.51;36.03
10135;BME280;5107;48.850;8.924;2023-06-24T09:12:32;97714.28;;;26.06;36.61
10135;BME280;5107;48.850;8.924;2023-06-24T09:14:58;97713.56;;;26.11;36.88
10135;BME280;5107;48.850;8.924;2023-06-24T09:17:24;97705.88;;;26.19;37.78
10135;BME280;5107;48.850;8.924;2023-06-24T09:19:50;97708.38;;;27.31;37.67
10135;BME280;5107;48.850;8.924;2023-06-24T09:22:16;97703.09;;;27.90;35.57
10135;BME280;5107;48.850;8.924;2023-06-24T09:24:43;97705.78;;;28.44;34.94
10135;BME280;5107;48.850;8.924;2023-06-24T09:27:17;97698.13;;;28.09;35.04
10135;BME280;5107;48.850;8.924;2023-06-24T09:29:45;97691.66;;;27.83;34.77
10135;BME280;5107;48.850;8.924;2023-06-24T09:32:12;97685.41;;;28.36;35.08
10135;BME280;5107;48.850;8.924;2023-06-24T09:34:37;97684.03;;;28.71;33.45
10135;BME280;5107;48.850;8.924;2023-06-24T09:37:03;97687.31;;;28.09;33.20
10135;BME280;5107;48.850;8.924;2023-06-24T09:39:35;97682.72;;;27.55;33.39
10135;BME280;5107;48.850;8.924;2023-06-24T09:42:01;97685.28;;;27.24;33.33
10135;BME280;5107;48.850;8.924;2023-06-24T09:44:27;97689.75;;;26.74;34.40
10135;BME280;5107;48.850;8.924;2023-06-24T09:46:53;97679.94;;;26.68;34.90
10135;BME280;5107;48.850;8.924;2023-06-24T09:49:19;97679.59;;;27.47;35.05
10135;BME280;5107;48.850;8.924;2023-06-24T09:51:47;97672.91;;;27.28;34.00
10135;BME280;5107;48.850;8.924;2023-06-24T09:54:14;97677.97;;;27.46;33.85
10135;BME280;5107;48.850;8.924;2023-06-24T09:56:45;97670.66;;;28.22;34.22
10135;BME280;5107;48.850;8.924;2023-06-24T09:59:13;97677.25;;;28.73;30.73
10135;BME280;5107;48.850;8.924;2023-06-24T10:01:40;97672.06;;;28.29;32.79
10135;BME280;5107;48.850;8.924;2023-06-24T10:04:06;97667.44;;;28.62;31.82
10135;BME280;5107;48.850;8.924;2023-06-24T10:06:33;97665.81;;;28.66;31.69
10135;BME280;5107;48.850;8.924;2023-06-24T10:09:02;97657.25;;;28.42;33.10
10135;BME280;5107;48.850;8.924;2023-06-24T10:11:28;97661.53;;;28.70;33.29
10135;BME280;5107;48.850;8.924;2023-06-24T10:13:53;97657.72;;;29.18;33.24
10135;BME280;5107;48.850;8.924;2023-06-24T10:16:19;97651.91;;;28.94;31.08
10135;BME280;5107;48.850;8.924;2023-06-24T10:18:45;97653.22;;;29.49;30.67
10135;BME280;5107;48.850;8.924;2023-06-24T10:21:11;97653.47;;;29.37;30.84
10135;BME280;5107;48.850;8.924;2023-06-24T10:23:41;97645.31;;;28.80;29.04
10135;BME280;5107;48.850;8.924;2023-06-24T10:26:27;97643.44;;;28.81;30.08
10135;BME280;5107;48.850;8.924;2023-06-24T10:34:22;97630.06;;;29.31;30.38
10135;BME280;5107;48.850;8.924;2023-06-24T10:42:37;97625.97;;;28.61;31.54
10135;BME280;5107;48.850;8.924;2023-06-24T10:50:11;97621.41;;;27.98;31.96
10135;BME280;5107;48.850;8.924;2023-06-24T10:52:42;97619.63;;;28.46;32.41
10135;BME280;5107;48.850;8.924;2023-06-24T10:55:08;97615.38;;;28.18;31.81
10135;BME280;5107;48.850;8.924;2023-06-24T10:57:33;97609.22;;;28.75;31.25
10135;BME280;5107;48.850;8.924;2023-06-24T10:59:59;97607.91;;;28.77;28.99
10135;BME280;5107;48.850;8.924;2023-06-24T11:02:26;97608.19;;;28.81;29.62
10135;BME280;5107;48.850;8.924;2023-06-24T11:04:54;97598.22;;;28.91;28.34
10135;BME280;5107;48.850;8.924;2023-06-24T11:07:21;97600.06;;;28.34;28.74
10135;BME280;5107;48.850;8.924;2023-06-24T11:12:16;97604.16;;;28.41;29.43
10135;BME280;5107;48.850;8.924;2023-06-24T11:14:41;97597.38;;;28.39;29.97
10135;BME280;5107;48.850;8.924;2023-06-24T11:17:06;97591.94;;;28.39;31.00
10135;BME280;5107;48.850;8.924;2023-06-24T11:19:32;97585.84;;;28.58;29.88
10135;BME280;5107;48.850;8.924;2023-06-24T11:22:02;97589.00;;;28.87;30.57
10135;BME280;5107;48.850;8.924;2023-06-24T11:24:27;97586.88;;;29.04;31.04
10135;BME280;5107;48.850;8.924;2023-06-24T11:26:53;97586.03;;;28.99;29.63
10135;BME280;5107;48.850;8.924;2023-06-24T11:29:18;97584.94;;;28.43;29.08
10135;BME280;5107;48.850;8.924;2023-06-24T11:31:44;97584.66;;;28.07;29.10
10135;BME280;5107;48.850;8.924;2023-06-24T11:34:10;97576.69;;;28.22;29.22
10135;BME280;5107;48.850;8.924;2023-06-24T11:36:36;97580.59;;;28.37;28.29
10135;BME280;5107;48.850;8.924;2023-06-24T11:39:01;97570.91;;;28.14;28.58
10135;BME280;5107;48.850;8.924;2023-06-24T11:41:27;97574.31;;;27.94;27.94
10135;BME280;5107;48.850;8.924;2023-06-24T11:43:53;97568.66;;;28.38;29.58
10135;BME280;5107;48.850;8.924;2023-06-24T11:46:25;97575.25;;;28.52;29.53
10135;BME280;5107;48.850;8.924;2023-06-24T11:48:51;97559.63;;;28.69;29.10
10135;BME280;5107;48.850;8.924;2023-06-24T11:51:16;97562.41;;;28.89;28.19
10135;BME280;5107;48.850;8.924;2023-06-24T11:53:45;97558.97;;;29.04;29.58
10135;BME280;5107;48.850;8.924;2023-06-24T11:56:12;97555.09;;;28.85;30.34
10135;BME280;5107;48.850;8.924;2023-06-24T11:58:37;97552.50;;;29.25;29.14
10135;BME280;5107;48.850;8.924;2023-06-24T12:01:03;97546.72;;;28.96;30.14
10135;BME280;5107;48.850;8.924;2023-06-24T12:03:29;97551.13;;;28.55;30.46
10135;BME280;5107;48.850;8.924;2023-06-24T12:05:55;97547.66;;;28.60;30.91
10135;BME280;5107;48.850;8.924;2023-06-24T12:08:21;97534.53;;;28.37;30.05
10135;BME280;5107;48.850;8.924;2023-06-24T12:10:48;97543.38;;;28.22;30.59
10135;BME280;5107;48.850;8.924;2023-06-24T12:13:13;97531.78;;;28.79;30.18
10135;BME280;5107;48.850;8.924;2023-06-24T12:15:38;97526.13;;;29.05;29.64
10135;BME280;5107;48.850;8.924;2023-06-24T12:18:04;97529.38;;;28.97;28.98
10135;BME280;5107;48.850;8.924;2023-06-24T12:20:30;97527.72;;;28.91;29.47
10135;BME280;5107;48.850;8.924;2023-06-24T12:22:57;97530.00;;;28.52;30.52
10135;BME280;5107;48.850;8.924;2023-06-24T12:25:23;97531.09;;;28.56;29.67
10135;BME280;5107;48.850;8.924;2023-06-24T12:27:49;97528.00;;;28.38;29.41
10135;BME280;5107;48.850;8.924;2023-06-24T12:30:15;97519.66;;;28.44;29.23
10135;BME280;5107;48.850;8.924;2023-06-24T12:32:41;97520.63;;;28.23;30.04
10135;BME280;5107;48.850;8.924;2023-06-24T12:35:07;97513.44;;;28.49;30.24
10135;BME280;5107;48.850;8.924;2023-06-24T12:37:36;97510.78;;;28.54;30.67
10135;BME280;5107;48.850;8.924;2023-06-24T12:40:02;97508.13;;;28.74;30.00
10135;BME280;5107;48.850;8.924;2023-06-24T12:42:28;97505.25;;;29.06;29.77
10135;BME280;5107;48.850;8.924;2023-06-24T12:44:53;97509.13;;;29.40;29.62
10135;BME280;5107;48.850;8.924;2023-06-24T12:47:19;97493.13;;;29.44;29.04
10135;BME280;5107;48.850;8.924;2023-06-24T12:49:44;97492.59;;;29.37;30.68
10135;BME280;5107;48.850;8.924;2023-06-24T12:52:11;97501.78;;;29.87;29.68
10135;BME280;5107;48.850;8.924;2023-06-24T12:54:37;97493.81;;;28.84;29.21
10135;BME280;5107;48.850;8.924;2023-06-24T12:57:02;97489.75;;;28.81;29.38
10135;BME280;5107;48.850;8.924;2023-06-24T12:59:28;97486.13;;;28.60;29.91
10135;BME280;5107;48.850;8.924;2023-06-24T13:01:53;97490.28;;;28.83;29.42
10135;BME280;5107;48.850;8.924;2023-06-24T13:04:18;97484.81;;;28.73;29.99
10135;BME280;5107;48.850;8.924;2023-06-24T13:06:45;97489.22;;;28.89;30.12
10135;BME280;5107;48.850;8.924;2023-06-24T13:09:11;97483.28;;;29.13;29.44
10135;BME280;5107;48.850;8.924;2023-06-24T13:11:36;97490.38;;;29.19;30.01
10135;BME280;5107;48.850;8.924;2023-06-24T13:14:02;97485.44;;;29.05;28.91
10135;BME280;5107;48.850;8.924;2023-06-24T13:16:28;97477.06;;;29.07;27.85
10135;BME280;5107;48.850;8.924;2023-06-24T13:18:53;97471.91;;;29.00;29.34
10135;BME280;5107;48.850;8.924;2023-06-24T13:21:18;97477.03;;;28.92;28.08
10135;BME280;5107;48.850;8.924;2023-06-24T13:23:44;97475.72;;;29.10;29.46
10135;BME280;5107;48.850;8.924;2023-06-24T13:26:11;97475.13;;;28.97;29.16
10135;BME280;5107;48.850;8.924;2023-06-24T13:28:37;97469.19;;;28.95;29.11
10135;BME280;5107;48.850;8.924;2023-06-24T13:31:02;97467.78;;;28.83;29.20